createdAt,value
2022-10-15T00:38:31.186Z,7.59
2022-10-15T00:40:58.449Z,7.62
2022-10-15T00:43:45.713Z,7.64
2022-10-15T00:46:36.826Z,7.66
2022-10-15T00:49:24.101Z,7.68
2022-10-15T00:51:59.260Z,7.65
2022-10-15T00:54:28.133Z,7.66
2022-10-15T00:56:55.706Z,7.67
2022-10-15T00:59:25.934Z,7.62
2022-10-15T01:01:53.383Z,7.58
2022-10-15T01:04:20.917Z,7.57
2022-10-15T01:06:47.516Z,7.54
2022-10-15T01:09:14.300Z,7.48
2022-10-15T01:11:48.343Z,7.45
2022-10-15T01:14:38.823Z,7.40
2022-10-15T01:17:11.973Z,7.39
2022-10-15T01:20:29.169Z,7.40
2022-10-15T01:23:26.161Z,7.45
2022-10-15T01:26:18.741Z,7.48
2022-10-15T01:28:48.153Z,7.57
2022-10-15T01:31:14.659Z,7.55
2022-10-15T01:34:08.015Z,7.50
2022-10-15T01:36:40.119Z,7.44
2022-10-15T01:39:11.860Z,7.45
2022-10-15T01:41:45.104Z,7.39
2022-10-15T01:44:18.915Z,7.36
2022-10-15T01:46:51.951Z,7.35
2022-10-15T01:49:22.058Z,7.37
2022-10-15T01:51:50.927Z,7.42
2022-10-15T01:54:20.396Z,7.46
2022-10-15T01:56:49.923Z,7.51
2022-10-15T01:59:24.019Z,7.54
2022-10-15T02:01:50.655Z,7.58
2022-10-15T02:04:26.243Z,7.57
2022-10-15T02:07:11.533Z,7.57
2022-10-15T02:09:54.775Z,7.56
2022-10-15T02:12:27.087Z,7.56
2022-10-15T02:15:11.063Z,7.59
2022-10-15T02:17:43.873Z,7.60
2022-10-15T02:20:31.183Z,7.59
2022-10-15T02:23:21.047Z,7.53
2022-10-15T02:25:49.977Z,7.48
2022-10-15T02:28:18.340Z,7.50
2022-10-15T02:30:51.116Z,7.50
2022-10-15T02:33:20.688Z,7.49
2022-10-15T02:35:49.613Z,7.53
2022-10-15T02:38:20.910Z,7.52
2022-10-15T02:40:48.713Z,7.53
2022-10-15T02:43:16.114Z,7.51
2022-10-15T02:45:42.731Z,7.46
2022-10-15T02:48:09.259Z,7.40
2022-10-15T02:50:35.771Z,7.35
2022-10-15T02:53:02.554Z,7.31
2022-10-15T02:55:29.057Z,7.28
2022-10-15T02:57:55.567Z,7.25
2022-10-15T03:00:22.419Z,7.24
2022-10-15T03:02:48.973Z,7.19
2022-10-15T03:05:15.940Z,7.15
2022-10-15T03:07:42.550Z,7.13
2022-10-15T03:10:09.192Z,7.09
2022-10-15T03:12:35.856Z,7.10
2022-10-15T03:15:02.539Z,7.11
2022-10-15T03:17:29.055Z,7.09
2022-10-15T03:19:55.556Z,7.07
2022-10-15T03:22:22.100Z,7.05
2022-10-15T03:24:48.671Z,7.02
2022-10-15T03:27:15.196Z,7.01
2022-10-15T03:29:41.747Z,7.04
2022-10-15T03:32:08.488Z,7.04
2022-10-15T03:34:35.020Z,7.00
2022-10-15T03:37:01.625Z,6.97
2022-10-15T03:39:28.111Z,6.97
2022-10-15T03:41:54.747Z,6.97
2022-10-15T03:44:21.250Z,6.93
2022-10-15T03:46:47.766Z,6.92
2022-10-15T03:49:14.403Z,6.90
2022-10-15T03:51:40.977Z,6.91
2022-10-15T03:54:07.548Z,6.93
2022-10-15T03:56:34.196Z,6.97
2022-10-15T03:59:00.680Z,6.97
2022-10-15T04:01:27.256Z,6.93
2022-10-15T04:03:53.874Z,6.91
2022-10-15T04:06:20.997Z,6.88
2022-10-15T04:08:47.513Z,6.82
2022-10-15T04:11:14.030Z,6.80
2022-10-15T04:13:40.595Z,6.72
2022-10-15T04:16:07.262Z,6.70
2022-10-15T04:18:33.783Z,6.65
2022-10-15T04:21:01.804Z,6.62
2022-10-15T04:23:28.383Z,6.57
2022-10-15T04:25:59.143Z,6.55
2022-10-15T04:28:25.752Z,6.52
2022-10-15T04:30:55.502Z,6.51
2022-10-15T04:33:22.002Z,6.49
2022-10-15T04:35:48.469Z,6.49
2022-10-15T04:38:14.954Z,6.48
2022-10-15T04:40:41.448Z,6.49
2022-10-15T04:43:07.993Z,6.53
2022-10-15T04:45:34.511Z,6.54
2022-10-15T04:48:01.209Z,6.54
2022-10-15T04:50:27.796Z,6.55
2022-10-15T04:52:54.296Z,6.50
2022-10-15T04:55:20.834Z,6.48
2022-10-15T04:57:47.416Z,6.47
2022-10-15T05:00:14.832Z,6.45
2022-10-15T05:02:44.360Z,6.40
2022-10-15T05:05:10.931Z,6.36
2022-10-15T05:07:37.428Z,6.35
2022-10-15T05:10:04.312Z,6.35
2022-10-15T05:12:30.872Z,6.37
2022-10-15T05:14:57.442Z,6.37
2022-10-15T05:17:24.217Z,6.35
2022-10-15T05:19:50.958Z,6.39
2022-10-15T05:22:17.571Z,6.42
2022-10-15T05:24:44.243Z,6.40
2022-10-15T05:27:10.723Z,6.41
2022-10-15T05:29:38.500Z,6.48
2022-10-15T05:32:05.200Z,6.51
2022-10-15T05:34:32.018Z,6.56
2022-10-15T05:36:58.514Z,6.67
2022-10-15T05:39:25.214Z,6.67
2022-10-15T05:41:53.480Z,6.70
2022-10-15T05:44:20.151Z,6.71
2022-10-15T05:46:46.663Z,6.73
2022-10-15T05:49:13.458Z,6.73
2022-10-15T05:51:39.951Z,6.74
2022-10-15T05:54:06.459Z,6.78
2022-10-15T05:56:32.940Z,6.87
2022-10-15T05:58:59.485Z,6.95
2022-10-15T06:01:26.183Z,7.03
2022-10-15T06:03:52.748Z,7.09
2022-10-15T06:06:24.278Z,7.16
2022-10-15T06:08:51.238Z,7.18
2022-10-15T06:11:18.102Z,7.20
2022-10-15T06:13:45.100Z,7.22
2022-10-15T06:16:14.778Z,7.30
2022-10-15T06:18:43.325Z,7.34
2022-10-15T06:21:11.145Z,7.37
2022-10-15T06:23:37.662Z,7.36
2022-10-15T06:26:05.973Z,7.38
2022-10-15T06:28:33.511Z,7.42
2022-10-15T06:31:00.833Z,7.42
2022-10-15T06:33:28.660Z,7.51
2022-10-15T06:35:55.373Z,7.53
2022-10-15T06:38:21.959Z,7.54
2022-10-15T06:40:48.536Z,7.53
2022-10-15T06:43:15.068Z,7.50
2022-10-15T06:45:42.576Z,7.53
2022-10-15T06:48:09.334Z,7.62
2022-10-15T06:50:37.585Z,7.64
2022-10-15T06:53:04.829Z,7.63
2022-10-15T06:55:31.480Z,7.60
2022-10-15T06:57:58.117Z,7.62
2022-10-15T07:00:25.478Z,7.66
2022-10-15T07:02:52.446Z,7.75
2022-10-15T07:05:19.578Z,7.77
2022-10-15T07:07:53.662Z,7.80
2022-10-15T07:12:46.991Z,7.97
2022-10-15T07:15:13.596Z,8.05
2022-10-15T07:17:40.432Z,8.09
2022-10-15T07:20:07.665Z,8.06
2022-10-15T07:22:34.251Z,8.08
2022-10-15T07:25:00.803Z,7.94
2022-10-15T07:27:27.296Z,7.91
2022-10-15T07:29:53.832Z,7.88
2022-10-15T07:32:20.331Z,7.86
2022-10-15T07:34:46.841Z,7.89
2022-10-15T07:37:13.374Z,7.92
2022-10-15T07:39:40.984Z,7.98
2022-10-15T07:42:08.529Z,7.99
2022-10-15T07:44:35.066Z,7.99
2022-10-15T07:47:01.541Z,7.99
2022-10-15T07:49:28.084Z,7.94
2022-10-15T07:51:54.586Z,7.90
2022-10-15T07:54:21.158Z,7.93
2022-10-15T07:56:47.669Z,8.03
2022-10-15T07:59:14.262Z,8.18
2022-10-15T08:01:40.738Z,8.27
2022-10-15T08:04:07.255Z,8.29
2022-10-15T08:06:33.794Z,8.45
2022-10-15T08:09:00.315Z,8.47
2022-10-15T08:11:26.805Z,8.55
2022-10-15T08:13:53.734Z,8.60
2022-10-15T08:16:20.304Z,8.72
2022-10-15T08:18:46.896Z,8.84
2022-10-15T08:21:13.502Z,9.01
2022-10-15T08:23:40.080Z,9.12
2022-10-15T08:26:07.001Z,9.17
2022-10-15T08:28:35.727Z,9.23
2022-10-15T08:31:05.542Z,9.23
2022-10-15T08:33:34.195Z,9.21
2022-10-15T08:36:01.062Z,9.15
2022-10-15T08:38:27.682Z,9.27
2022-10-15T08:40:57.401Z,9.38
2022-10-15T08:43:46.334Z,9.39
2022-10-15T08:46:18.816Z,9.48
2022-10-15T08:48:49.738Z,9.58
2022-10-15T08:51:21.778Z,9.64
2022-10-15T08:53:57.962Z,9.78
2022-10-15T08:56:30.661Z,9.80
2022-10-15T08:59:25.296Z,9.87
2022-10-15T09:02:16.080Z,9.98
2022-10-15T09:05:06.123Z,10.16
2022-10-15T09:07:44.993Z,10.38
2022-10-15T09:10:11.549Z,10.56
2022-10-15T09:13:02.187Z,10.72
2022-10-15T09:15:36.709Z,10.81
2022-10-15T09:18:03.406Z,10.92
2022-10-15T09:20:34.524Z,10.97
2022-10-15T09:23:01.593Z,10.99
2022-10-15T09:25:35.761Z,10.91
2022-10-15T09:28:13.109Z,10.90
2022-10-15T09:30:48.811Z,10.98
2022-10-15T09:33:27.588Z,10.98
2022-10-15T09:36:06.052Z,11.04
2022-10-15T09:38:48.163Z,11.06
2022-10-15T09:41:40.658Z,11.12
2022-10-15T09:44:13.893Z,11.26
2022-10-15T09:46:45.765Z,11.34
2022-10-15T09:49:21.266Z,11.47
2022-10-15T09:51:53.880Z,11.53
2022-10-15T09:54:31.423Z,11.58
2022-10-15T09:56:58.440Z,11.57
2022-10-15T09:59:26.127Z,11.57
2022-10-15T10:01:58.888Z,11.51
2022-10-15T10:04:29.129Z,11.58
2022-10-15T10:07:02.232Z,11.52
2022-10-15T10:09:34.186Z,11.50
2022-10-15T10:12:20.732Z,11.44
2022-10-15T10:15:06.092Z,11.52
2022-10-15T10:17:32.664Z,11.47
2022-10-15T10:20:18.685Z,11.48
2022-10-15T10:22:53.932Z,11.46
2022-10-15T10:25:23.453Z,11.51
2022-10-15T10:27:50.081Z,11.46
2022-10-15T10:30:16.689Z,11.40
2022-10-15T10:32:43.474Z,11.41
2022-10-15T10:35:29.303Z,11.57
2022-10-15T10:37:55.928Z,11.60
2022-10-15T10:40:32.213Z,11.51
2022-10-15T10:43:11.889Z,11.43
2022-10-15T10:45:38.556Z,11.43
2022-10-15T10:48:23.889Z,11.48
2022-10-15T10:51:03.045Z,11.41
2022-10-15T10:53:29.547Z,11.38
2022-10-15T10:55:57.500Z,11.39
2022-10-15T10:58:27.121Z,11.36
2022-10-15T11:00:55.623Z,11.29
2022-10-15T11:03:44.383Z,11.26
2022-10-15T11:06:19.619Z,11.23
2022-10-15T11:08:55.237Z,11.15
2022-10-15T11:11:32.278Z,11.17
2022-10-15T11:14:28.591Z,11.22
2022-10-15T11:17:49.161Z,11.21
2022-10-15T11:20:58.663Z,11.02
2022-10-15T11:23:42.035Z,10.76
2022-10-15T11:26:14.427Z,10.64
2022-10-15T11:28:55.289Z,10.60
2022-10-15T11:31:49.163Z,10.66
2022-10-15T11:34:57.612Z,10.63
2022-10-15T11:37:42.403Z,10.69
2022-10-15T11:40:46.602Z,10.80
2022-10-15T11:43:34.823Z,10.83
2022-10-15T11:46:25.328Z,10.82
2022-10-15T11:49:04.500Z,10.83
2022-10-15T11:52:08.128Z,10.90
2022-10-15T11:54:57.835Z,10.88
2022-10-15T11:57:26.891Z,10.81
2022-10-15T11:59:56.578Z,10.77
2022-10-15T12:02:31.238Z,10.73
2022-10-15T12:05:27.539Z,10.66
2022-10-15T12:07:55.004Z,10.67
2022-10-15T12:10:31.114Z,10.61
2022-10-15T12:13:13.492Z,10.67
2022-10-15T12:15:51.116Z,10.67
2022-10-15T12:18:35.105Z,10.64
2022-10-15T12:21:01.812Z,10.72
2022-10-15T12:23:37.459Z,10.89
2022-10-15T12:26:23.868Z,11.08
2022-10-15T12:28:59.414Z,11.18
2022-10-15T12:32:04.023Z,11.22
2022-10-15T12:34:41.053Z,11.15
2022-10-15T12:37:17.552Z,11.03
2022-10-15T12:39:52.616Z,11.09
2022-10-15T12:42:30.926Z,11.03
2022-10-15T12:45:00.770Z,10.89
2022-10-15T12:47:54.918Z,10.75
2022-10-15T12:50:25.278Z,10.78
2022-10-15T12:52:58.471Z,10.81
2022-10-15T12:55:30.084Z,10.87
2022-10-15T12:58:02.500Z,10.94
2022-10-15T13:00:34.017Z,11.03
2022-10-15T13:03:22.890Z,11.06
2022-10-15T13:05:53.224Z,11.04
2022-10-15T13:08:26.232Z,10.91
2022-10-15T13:10:57.476Z,10.79
2022-10-15T13:13:31.436Z,10.79
2022-10-15T13:16:07.272Z,10.81
2022-10-15T13:18:34.261Z,10.78
2022-10-15T13:23:32.067Z,10.66
2022-10-15T13:26:19.103Z,10.59
2022-10-15T13:28:47.919Z,10.48
2022-10-15T13:31:35.108Z,10.36
2022-10-15T13:34:28.574Z,10.14
2022-10-15T13:37:00.764Z,10.15
2022-10-15T13:39:40.472Z,10.11
2022-10-15T13:42:14.233Z,10.08
2022-10-15T13:44:41.296Z,10.08
2022-10-15T13:47:26.298Z,10.12
2022-10-15T13:50:11.327Z,10.00
2022-10-15T13:52:44.379Z,9.93
2022-10-15T13:55:18.053Z,9.89
2022-10-15T14:00:36.751Z,9.77
2022-10-15T14:03:17.756Z,9.77
2022-10-15T14:05:46.200Z,9.74
2022-10-15T14:08:21.108Z,9.68
2022-10-15T14:10:49.002Z,9.72
2022-10-15T14:13:16.160Z,9.72
2022-10-15T14:15:57.898Z,9.73
2022-10-15T14:18:31.890Z,9.69
2022-10-15T14:20:58.999Z,9.60
2022-10-15T14:23:27.606Z,9.60
2022-10-15T14:26:02.806Z,9.54
2022-10-15T14:28:32.235Z,9.56
2022-10-15T14:31:00.613Z,9.67
2022-10-15T14:33:36.953Z,9.62
2022-10-15T14:36:17.893Z,9.59
2022-10-15T14:38:44.470Z,9.62
2022-10-15T14:41:23.191Z,9.63
2022-10-15T14:44:06.094Z,9.67
2022-10-15T14:46:41.692Z,9.76
2022-10-15T14:49:28.745Z,9.77
2022-10-15T14:52:03.438Z,9.82
2022-10-15T14:54:39.779Z,9.84
2022-10-15T14:57:17.322Z,9.78
2022-10-15T14:59:44.364Z,9.76
2022-10-15T15:02:15.698Z,9.73
2022-10-15T15:04:46.204Z,9.76
2022-10-15T15:07:20.970Z,9.74
2022-10-15T15:09:48.846Z,9.73
2022-10-15T15:12:21.729Z,9.63
2022-10-15T15:14:51.215Z,9.55
2022-10-15T15:17:21.910Z,9.55
2022-10-15T15:19:50.621Z,9.53
2022-10-15T15:22:23.761Z,9.52
2022-10-15T15:24:50.721Z,9.49
2022-10-15T15:27:26.331Z,9.47
2022-10-15T15:29:53.885Z,9.46
2022-10-15T15:32:21.248Z,9.43
2022-10-15T15:34:49.215Z,9.41
2022-10-15T15:37:21.766Z,9.38
2022-10-15T15:39:49.234Z,9.37
2022-10-15T15:42:21.566Z,9.33
2022-10-15T15:44:48.479Z,9.29
2022-10-15T15:47:15.427Z,9.26
2022-10-15T15:49:42.559Z,9.21
2022-10-15T15:52:14.011Z,9.19
2022-10-15T15:54:41.420Z,9.16
2022-10-15T15:57:07.999Z,9.11
2022-10-15T15:59:34.720Z,9.08
2022-10-15T16:02:01.403Z,9.03
2022-10-15T16:04:27.934Z,9.00
2022-10-15T16:06:54.445Z,8.99
2022-10-15T16:09:22.988Z,8.94
2022-10-15T16:11:50.820Z,8.91
2022-10-15T16:14:17.432Z,8.89
2022-10-15T16:16:44.014Z,8.88
2022-10-15T16:19:10.599Z,8.84
2022-10-15T16:21:37.526Z,8.85
2022-10-15T16:24:04.418Z,8.81
2022-10-15T16:26:30.972Z,8.77
2022-10-15T16:28:57.495Z,8.74
2022-10-15T16:31:29.509Z,8.73
2022-10-15T16:33:57.537Z,8.68
2022-10-15T16:36:24.841Z,8.68
2022-10-15T16:38:51.451Z,8.67
2022-10-15T16:41:23.029Z,8.67
2022-10-15T16:43:50.109Z,8.68
2022-10-15T16:46:18.153Z,8.67
2022-10-15T16:48:45.382Z,8.68
2022-10-15T16:51:16.813Z,8.66
2022-10-15T16:53:46.355Z,8.67
2022-10-15T16:56:21.195Z,8.66
2022-10-15T16:58:47.911Z,8.66
2022-10-15T17:01:20.411Z,8.65
2022-10-15T17:03:48.092Z,8.62
2022-10-15T17:06:17.651Z,8.62
2022-10-15T17:08:55.970Z,8.62
2022-10-15T17:11:25.811Z,8.61
2022-10-15T17:13:55.486Z,8.60
2022-10-15T17:16:26.417Z,8.60
2022-10-15T17:18:53.769Z,8.60
2022-10-15T17:21:25.561Z,8.59
2022-10-15T17:23:54.186Z,8.59
2022-10-15T17:26:24.116Z,8.60
2022-10-15T17:28:52.168Z,8.59
2022-10-15T17:31:21.134Z,8.57
2022-10-15T17:33:48.707Z,8.55
2022-10-15T17:36:20.903Z,8.56
2022-10-15T17:38:48.007Z,8.56
2022-10-15T17:41:21.426Z,8.56
2022-10-15T17:43:49.356Z,8.57
2022-10-15T17:46:19.454Z,8.59
2022-10-15T17:48:46.778Z,8.61
2022-10-15T17:51:15.879Z,8.63
2022-10-15T17:53:43.464Z,8.63
2022-10-15T17:56:15.787Z,8.65
2022-10-15T17:58:43.672Z,8.65
2022-10-15T18:01:33.347Z,8.66
2022-10-15T18:04:11.453Z,8.66
2022-10-15T18:06:38.362Z,8.64
2022-10-15T18:09:04.919Z,8.65
2022-10-15T18:11:35.469Z,8.64
2022-10-15T18:14:03.571Z,8.64
2022-10-15T18:16:30.545Z,8.62
2022-10-15T18:18:57.271Z,8.59
2022-10-15T18:21:25.275Z,8.57
2022-10-15T18:23:51.846Z,8.57
2022-10-15T18:26:21.469Z,8.57
2022-10-15T18:28:50.766Z,8.57
2022-10-15T18:31:18.114Z,8.55
2022-10-15T18:33:47.388Z,8.54
2022-10-15T18:36:20.066Z,8.49
2022-10-15T18:38:46.960Z,8.49
2022-10-15T18:41:16.423Z,8.50
2022-10-15T18:43:43.189Z,8.49
2022-10-15T18:46:10.192Z,8.49
2022-10-15T18:48:38.138Z,8.51
2022-10-15T18:51:10.844Z,8.51
2022-10-15T18:53:39.177Z,8.52
2022-10-15T18:56:06.970Z,8.54
2022-10-15T18:58:33.585Z,8.54
2022-10-15T19:01:24.809Z,8.56
2022-10-15T19:03:52.615Z,8.57
2022-10-15T19:06:21.328Z,8.57
2022-10-15T19:08:48.579Z,8.57
2022-10-15T19:11:15.505Z,8.57
2022-10-15T19:13:42.035Z,8.58
2022-10-15T19:16:08.543Z,8.59
2022-10-15T19:18:37.115Z,8.57
2022-10-15T19:21:05.076Z,8.53
2022-10-15T19:23:32.236Z,8.53
2022-10-15T19:25:58.960Z,8.52
2022-10-15T19:28:25.927Z,8.51
2022-10-15T19:31:02.348Z,8.51
2022-10-15T19:33:30.712Z,8.51
2022-10-15T19:35:57.357Z,8.50
2022-10-15T19:38:24.607Z,8.51
2022-10-15T19:40:51.887Z,8.50
2022-10-15T19:43:20.204Z,8.50
2022-10-15T19:45:47.481Z,8.51
2022-10-15T19:48:17.330Z,8.52
2022-10-15T19:50:47.374Z,8.53
2022-10-15T19:53:16.455Z,8.51
2022-10-15T19:55:44.641Z,8.52
2022-10-15T19:58:11.227Z,8.49
2022-10-15T20:00:37.814Z,8.48
2022-10-15T20:03:04.447Z,8.49
2022-10-15T20:05:30.958Z,8.48
2022-10-15T20:07:57.823Z,8.49
2022-10-15T20:10:26.196Z,8.48
2022-10-15T20:12:53.620Z,8.48
2022-10-15T20:15:20.339Z,8.44
2022-10-15T20:17:48.000Z,8.43
2022-10-15T20:20:14.799Z,8.45
2022-10-15T20:22:41.421Z,8.47
2022-10-15T20:25:08.432Z,8.48
2022-10-15T20:27:34.939Z,8.48
2022-10-15T20:30:01.458Z,8.47
2022-10-15T20:32:34.677Z,8.45
2022-10-15T20:35:02.723Z,8.44
2022-10-15T20:37:29.263Z,8.48
2022-10-15T20:42:23.454Z,8.52
2022-10-15T20:44:50.186Z,8.53
2022-10-15T20:47:17.048Z,8.57
2022-10-15T20:49:49.289Z,8.59
2022-10-15T20:52:16.219Z,8.63
2022-10-15T20:54:42.864Z,8.63
2022-10-15T20:57:10.433Z,8.59
2022-10-15T20:59:36.962Z,8.52
2022-10-15T21:02:03.614Z,8.51
2022-10-15T21:04:30.178Z,8.47
2022-10-15T21:06:57.236Z,8.43
2022-10-15T21:09:23.824Z,8.38
2022-10-15T21:11:50.333Z,8.40
2022-10-15T21:14:16.944Z,8.41
2022-10-15T21:16:43.467Z,8.37
2022-10-15T21:19:09.963Z,8.32
2022-10-15T21:21:36.733Z,8.22
2022-10-15T21:24:03.518Z,8.19
2022-10-15T21:26:30.101Z,8.14
2022-10-15T21:28:58.796Z,8.04
2022-10-15T21:31:26.693Z,7.96
2022-10-15T21:33:55.097Z,7.92
2022-10-15T21:36:25.064Z,7.87
2022-10-15T21:38:59.950Z,7.82
2022-10-15T21:41:29.205Z,7.81
2022-10-15T21:43:55.794Z,7.78
2022-10-15T21:46:22.844Z,7.75
2022-10-15T21:48:49.973Z,7.73
2022-10-15T21:51:19.482Z,7.72
2022-10-15T21:53:46.295Z,7.72
2022-10-15T21:56:13.328Z,7.67
2022-10-15T21:58:41.255Z,7.64
2022-10-15T22:01:19.113Z,7.61
2022-10-15T22:03:46.655Z,7.50
2022-10-15T22:06:13.667Z,7.49
2022-10-15T22:08:40.764Z,7.43
2022-10-15T22:11:20.004Z,7.26
2022-10-15T22:13:48.730Z,7.14
2022-10-15T22:16:17.353Z,7.09
2022-10-15T22:18:44.394Z,7.03
2022-10-15T22:21:37.939Z,6.96
2022-10-15T22:24:08.320Z,6.89
2022-10-15T22:26:38.237Z,6.83
2022-10-15T22:29:07.087Z,6.85
2022-10-15T22:31:34.120Z,6.79
2022-10-15T22:34:00.907Z,6.72
2022-10-15T22:36:31.451Z,6.71
2022-10-15T22:39:04.964Z,6.68
2022-10-15T22:41:34.360Z,6.67
2022-10-15T22:44:00.974Z,6.67
2022-10-15T22:46:28.189Z,6.66
2022-10-15T22:48:54.829Z,6.65
2022-10-15T22:51:21.382Z,6.64
2022-10-15T22:53:48.225Z,6.63
2022-10-15T22:56:18.215Z,6.60
2022-10-15T22:58:46.078Z,6.50
2022-10-15T23:01:20.968Z,6.38
2022-10-15T23:03:51.176Z,6.35
2022-10-15T23:06:18.796Z,6.40
2022-10-15T23:08:47.386Z,6.55
2022-10-15T23:11:22.547Z,6.56
2022-10-15T23:13:53.718Z,6.41
2022-10-15T23:16:32.100Z,6.32
2022-10-15T23:19:04.132Z,6.26
2022-10-15T23:21:41.150Z,6.46
2022-10-15T23:24:08.253Z,6.43
2022-10-15T23:26:35.506Z,6.36
2022-10-15T23:29:04.156Z,6.30
2022-10-15T23:31:33.706Z,6.30
2022-10-15T23:34:01.446Z,6.22
2022-10-15T23:36:30.207Z,6.17
2022-10-15T23:39:00.333Z,6.02
2022-10-15T23:41:28.448Z,5.95
2022-10-15T23:43:56.397Z,5.94
2022-10-15T23:46:23.214Z,5.96
2022-10-15T23:48:50.514Z,5.96
2022-10-15T23:51:19.312Z,5.88
2022-10-15T23:53:46.527Z,5.80
2022-10-15T23:56:13.410Z,5.82
2022-10-15T23:58:40.246Z,5.89
